sensor_id;sensor_type;location;lat;lon;timestamp;pressure;altitude;pressure_sealevel;temperature;humidity
47883;BME280;37739;50.350;7.578;2022-09-09T00:00:19;99135.50;;;18.73;64.47
47883;BME280;37739;50.350;7.578;2022-09-09T00:02:55;99135.53;;;18.71;65.05
47883;BME280;37739;50.350;7.578;2022-09-09T00:08:45;99138.16;;;18.63;65.50
47883;BME280;37739;50.350;7.578;2022-09-09T00:11:26;99132.13;;;18.60;65.15
47883;BME280;37739;50.350;7.578;2022-09-09T00:13:54;99131.28;;;18.59;65.05
47883;BME280;37739;50.350;7.578;2022-09-09T00:16:25;99126.06;;;18.59;65.33
47883;BME280;37739;50.350;7.578;2022-09-09T00:18:52;99125.22;;;18.57;64.98
47883;BME280;37739;50.350;7.578;2022-09-09T00:21:30;99124.38;;;18.55;65.53
47883;BME280;37739;50.350;7.578;2022-09-09T00:24:00;99123.47;;;18.55;65.13
47883;BME280;37739;50.350;7.578;2022-09-09T00:26:31;99121.78;;;18.55;65.05
47883;BME280;37739;50.350;7.578;2022-09-09T00:31:31;99118.34;;;18.50;65.19
47883;BME280;37739;50.350;7.578;2022-09-09T00:34:13;99117.47;;;18.45;66.56
47883;BME280;37739;50.350;7.578;2022-09-09T00:36:41;99120.97;;;18.44;65.27
47883;BME280;37739;50.350;7.578;2022-09-09T00:42:46;99116.63;;;18.46;66.53
47883;BME280;37739;50.350;7.578;2022-09-09T00:45:47;99113.19;;;18.42;66.28
47883;BME280;37739;50.350;7.578;2022-09-09T00:48:17;99120.13;;;18.40;65.26
47883;BME280;37739;50.350;7.578;2022-09-09T00:50:53;99119.22;;;18.43;65.65
47883;BME280;37739;50.350;7.578;2022-09-09T00:58:34;99125.31;;;18.37;65.54
47883;BME280;37739;50.350;7.578;2022-09-09T01:01:05;99123.66;;;18.27;66.55
47883;BME280;37739;50.350;7.578;2022-09-09T01:03:38;99121.97;;;18.12;66.87
47883;BME280;37739;50.350;7.578;2022-09-09T01:06:30;99113.25;;;18.27;66.37
47883;BME280;37739;50.350;7.578;2022-09-09T01:12:05;99122.81;;;18.25;66.60
47883;BME280;37739;50.350;7.578;2022-09-09T01:17:05;99116.75;;;18.23;65.87
47883;BME280;37739;50.350;7.578;2022-09-09T01:27:58;99115.00;;;18.20;66.08
47883;BME280;37739;50.350;7.578;2022-09-09T01:30:26;99107.28;;;18.10;65.99
47883;BME280;37739;50.350;7.578;2022-09-09T01:32:57;99112.47;;;18.11;66.11
47883;BME280;37739;50.350;7.578;2022-09-09T01:35:35;99109.88;;;18.11;66.35
47883;BME280;37739;50.350;7.578;2022-09-09T01:38:05;99118.63;;;17.90;66.80
47883;BME280;37739;50.350;7.578;2022-09-09T01:40:31;99118.63;;;17.90;66.71
47883;BME280;37739;50.350;7.578;2022-09-09T01:42:59;99133.34;;;17.88;67.03
47883;BME280;37739;50.350;7.578;2022-09-09T01:45:25;99129.00;;;17.78;67.29
47883;BME280;37739;50.350;7.578;2022-09-09T01:47:52;99129.88;;;17.72;67.44
47883;BME280;37739;50.350;7.578;2022-09-09T01:50:21;99129.00;;;17.76;67.48
47883;BME280;37739;50.350;7.578;2022-09-09T01:52:51;99129.00;;;17.76;67.51
47883;BME280;37739;50.350;7.578;2022-09-09T01:55:30;99136.78;;;17.81;67.65
47883;BME280;37739;50.350;7.578;2022-09-09T02:00:44;99142.84;;;17.88;67.76
47883;BME280;37739;50.350;7.578;2022-09-09T02:03:24;99144.56;;;17.87;68.18
47883;BME280;37739;50.350;7.578;2022-09-09T02:08:59;99135.03;;;17.88;68.23
47883;BME280;37739;50.350;7.578;2022-09-09T02:11:27;99133.34;;;17.88;67.63
47883;BME280;37739;50.350;7.578;2022-09-09T02:14:01;99135.91;;;17.90;67.84
47883;BME280;37739;50.350;7.578;2022-09-09T02:16:52;99128.97;;;17.92;67.63
47883;BME280;37739;50.350;7.578;2022-09-09T02:21:54;99124.72;;;17.60;69.04
47883;BME280;37739;50.350;7.578;2022-09-09T02:24:21;99121.28;;;17.55;69.49
47883;BME280;37739;50.350;7.578;2022-09-09T02:26:49;99123.88;;;17.58;69.22
47883;BME280;37739;50.350;7.578;2022-09-09T02:29:23;99117.78;;;17.66;68.96
47883;BME280;37739;50.350;7.578;2022-09-09T02:31:51;99117.78;;;17.68;68.81
47883;BME280;37739;50.350;7.578;2022-09-09T02:34:22;99117.78;;;17.68;68.49
47883;BME280;37739;50.350;7.578;2022-09-09T02:36:50;99120.38;;;17.68;68.65
47883;BME280;37739;50.350;7.578;2022-09-09T02:39:18;99116.03;;;17.72;68.34
47883;BME280;37739;50.350;7.578;2022-09-09T02:41:44;99111.75;;;17.61;69.06
47883;BME280;37739;50.350;7.578;2022-09-09T02:44:16;99110.91;;;17.58;69.27
47883;BME280;37739;50.350;7.578;2022-09-09T02:47:25;99113.50;;;17.58;70.04
47883;BME280;37739;50.350;7.578;2022-09-09T02:50:25;99110.91;;;17.59;70.17
47883;BME280;37739;50.350;7.578;2022-09-09T02:53:09;99102.25;;;17.59;69.66
47883;BME280;37739;50.350;7.578;2022-09-09T02:58:15;99101.38;;;17.58;69.29
47883;BME280;37739;50.350;7.578;2022-09-09T03:00:49;99105.72;;;17.49;69.83
47883;BME280;37739;50.350;7.578;2022-09-09T03:03:18;99116.97;;;17.49;69.57
47883;BME280;37739;50.350;7.578;2022-09-09T03:05:45;99114.38;;;17.49;69.54
47883;BME280;37739;50.350;7.578;2022-09-09T03:08:11;99112.66;;;17.37;70.38
47883;BME280;37739;50.350;7.578;2022-09-09T03:10:39;99105.72;;;17.47;70.01
47883;BME280;37739;50.350;7.578;2022-09-09T03:13:07;99102.25;;;17.53;69.68
47883;BME280;37739;50.350;7.578;2022-09-09T03:15:33;99113.50;;;17.55;69.58
47883;BME280;37739;50.350;7.578;2022-09-09T03:18:01;99116.09;;;17.56;69.82
47883;BME280;37739;50.350;7.578;2022-09-09T03:20:29;99122.09;;;17.66;69.18
47883;BME280;37739;50.350;7.578;2022-09-09T03:22:55;99117.78;;;17.66;69.32
47883;BME280;37739;50.350;7.578;2022-09-09T03:25:23;99115.19;;;17.66;69.52
47883;BME280;37739;50.350;7.578;2022-09-09T03:27:50;99119.53;;;17.63;70.30
47883;BME280;37739;50.350;7.578;2022-09-09T03:30:22;99119.56;;;17.55;69.95
47883;BME280;37739;50.350;7.578;2022-09-09T03:32:48;99123.88;;;17.58;69.65
47883;BME280;37739;50.350;7.578;2022-09-09T03:35:16;99118.69;;;17.59;69.80
47883;BME280;37739;50.350;7.578;2022-09-09T03:37:41;99126.44;;;17.62;69.25
47883;BME280;37739;50.350;7.578;2022-09-09T03:40:08;99128.19;;;17.63;69.24
47883;BME280;37739;50.350;7.578;2022-09-09T03:42:35;99126.44;;;17.62;69.49
47883;BME280;37739;50.350;7.578;2022-09-09T03:45:05;99129.06;;;17.52;69.46
47883;BME280;37739;50.350;7.578;2022-09-09T03:47:34;99123.88;;;17.55;69.65
47883;BME280;37739;50.350;7.578;2022-09-09T03:49:59;99130.78;;;17.56;69.63
47883;BME280;37739;50.350;7.578;2022-09-09T03:52:27;99132.53;;;17.54;69.41
47883;BME280;37739;50.350;7.578;2022-09-09T03:54:53;99126.47;;;17.52;69.56
47883;BME280;37739;50.350;7.578;2022-09-09T03:57:19;99119.56;;;17.51;69.45
47883;BME280;37739;50.350;7.578;2022-09-09T03:59:45;99134.25;;;17.50;69.48
47883;BME280;37739;50.350;7.578;2022-09-09T04:02:10;99119.56;;;17.48;69.83
47883;BME280;37739;50.350;7.578;2022-09-09T04:04:36;99116.97;;;17.48;69.06
47883;BME280;37739;50.350;7.578;2022-09-09T04:07:01;99116.09;;;17.47;69.15
47883;BME280;37739;50.350;7.578;2022-09-09T04:09:27;99113.50;;;17.47;69.34
47883;BME280;37739;50.350;7.578;2022-09-09T04:11:52;99110.06;;;17.45;69.50
47883;BME280;37739;50.350;7.578;2022-09-09T04:14:21;99122.16;;;17.41;69.71
47883;BME280;37739;50.350;7.578;2022-09-09T04:16:47;99129.94;;;17.41;69.62
47883;BME280;37739;50.350;7.578;2022-09-09T04:19:13;99135.13;;;17.43;69.45
47883;BME280;37739;50.350;7.578;2022-09-09T04:21:40;99131.69;;;17.44;69.25
47883;BME280;37739;50.350;7.578;2022-09-09T04:24:10;99137.72;;;17.44;69.12
47883;BME280;37739;50.350;7.578;2022-09-09T04:26:37;99132.56;;;17.40;69.28
47883;BME280;37739;50.350;7.578;2022-09-09T04:29:05;99133.41;;;17.39;69.07
47883;BME280;37739;50.350;7.578;2022-09-09T04:31:32;99138.59;;;17.36;69.09
47883;BME280;37739;50.350;7.578;2022-09-09T04:34:00;99145.53;;;17.31;69.36
47883;BME280;37739;50.350;7.578;2022-09-09T04:36:30;99150.69;;;17.35;69.16
47883;BME280;37739;50.350;7.578;2022-09-09T04:38:56;99153.28;;;17.37;69.22
47883;BME280;37739;50.350;7.578;2022-09-09T04:41:22;99148.97;;;17.37;69.16
47883;BME280;37739;50.350;7.578;2022-09-09T04:43:50;99153.28;;;17.35;68.94
47883;BME280;37739;50.350;7.578;2022-09-09T04:46:15;99151.56;;;17.34;69.17
47883;BME280;37739;50.350;7.578;2022-09-09T04:48:42;99154.16;;;17.31;69.06
47883;BME280;37739;50.350;7.578;2022-09-09T04:51:11;99157.63;;;17.35;69.48
47883;BME280;37739;50.350;7.578;2022-09-09T04:53:39;99155.88;;;17.38;69.21
47883;BME280;37739;50.350;7.578;2022-09-09T04:56:10;99155.00;;;17.41;69.63
47883;BME280;37739;50.350;7.578;2022-09-09T04:58:37;99160.19;;;17.44;69.07
47883;BME280;37739;50.350;7.578;2022-09-09T05:01:10;99162.78;;;17.44;69.77
47883;BME280;37739;50.350;7.578;2022-09-09T05:03:36;99163.63;;;17.49;69.14
47883;BME280;37739;50.350;7.578;2022-09-09T05:06:11;99164.53;;;17.34;70.00
47883;BME280;37739;50.350;7.578;2022-09-09T05:08:38;99170.59;;;17.36;69.77
47883;BME280;37739;50.350;7.578;2022-09-09T05:13:45;99164.53;;;17.40;69.66
47883;BME280;37739;50.350;7.578;2022-09-09T05:16:16;99166.22;;;17.41;69.75
47883;BME280;37739;50.350;7.578;2022-09-09T05:18:44;99173.16;;;17.38;70.29
47883;BME280;37739;50.350;7.578;2022-09-09T05:21:12;99164.50;;;17.36;70.08
47883;BME280;37739;50.350;7.578;2022-09-09T05:23:38;99166.25;;;17.35;70.45
47883;BME280;37739;50.350;7.578;2022-09-09T05:26:06;99161.09;;;17.32;70.58
47883;BME280;37739;50.350;7.578;2022-09-09T05:28:36;99154.16;;;17.30;70.67
47883;BME280;37739;50.350;7.578;2022-09-09T05:31:08;99149.84;;;17.25;71.55
47883;BME280;37739;50.350;7.578;2022-09-09T05:33:40;99152.41;;;17.24;71.24
47883;BME280;37739;50.350;7.578;2022-09-09T05:36:08;99155.91;;;17.17;71.52
47883;BME280;37739;50.350;7.578;2022-09-09T05:38:38;99160.19;;;17.18;71.54
47883;BME280;37739;50.350;7.578;2022-09-09T05:41:07;99161.06;;;17.14;71.53
47883;BME280;37739;50.350;7.578;2022-09-09T05:43:35;99165.41;;;17.13;71.48
47883;BME280;37739;50.350;7.578;2022-09-09T05:46:17;99161.06;;;17.20;71.22
47883;BME280;37739;50.350;7.578;2022-09-09T05:48:44;99157.59;;;17.24;70.80
47883;BME280;37739;50.350;7.578;2022-09-09T05:51:17;99156.75;;;17.25;70.76
47883;BME280;37739;50.350;7.578;2022-09-09T05:53:44;99155.88;;;17.31;70.71
47883;BME280;37739;50.350;7.578;2022-09-09T05:56:17;99160.22;;;17.36;70.45
47883;BME280;37739;50.350;7.578;2022-09-09T05:58:46;99167.97;;;17.39;70.02
47883;BME280;37739;50.350;7.578;2022-09-09T06:01:27;99168.81;;;17.41;69.98
47883;BME280;37739;50.350;7.578;2022-09-09T06:03:58;99165.38;;;17.44;69.56
47883;BME280;37739;50.350;7.578;2022-09-09T06:06:30;99171.44;;;17.48;69.59
47883;BME280;37739;50.350;7.578;2022-09-09T06:08:58;99169.69;;;17.48;69.86
47883;BME280;37739;50.350;7.578;2022-09-09T06:11:26;99162.78;;;17.47;70.22
47883;BME280;37739;50.350;7.578;2022-09-09T06:13:52;99166.22;;;17.51;70.06
47883;BME280;37739;50.350;7.578;2022-09-09T06:16:24;99167.09;;;17.56;69.95
47883;BME280;37739;50.350;7.578;2022-09-09T06:18:53;99172.25;;;17.59;70.40
47883;BME280;37739;50.350;7.578;2022-09-09T06:21:27;99176.59;;;17.58;70.44
47883;BME280;37739;50.350;7.578;2022-09-09T06:23:58;99174.00;;;17.60;70.25
47883;BME280;37739;50.350;7.578;2022-09-09T06:26:29;99165.38;;;17.58;70.18
47883;BME280;37739;50.350;7.578;2022-09-09T06:28:56;99172.25;;;17.59;70.29
47883;BME280;37739;50.350;7.578;2022-09-09T06:31:24;99164.50;;;17.48;70.50
47883;BME280;37739;50.350;7.578;2022-09-09T06:33:53;99167.97;;;17.52;70.48
47883;BME280;37739;50.350;7.578;2022-09-09T06:36:22;99167.97;;;17.50;70.28
47883;BME280;37739;50.350;7.578;2022-09-09T06:38:51;99167.94;;;17.53;70.07
47883;BME280;37739;50.350;7.578;2022-09-09T06:41:21;99167.97;;;17.58;69.70
47883;BME280;37739;50.350;7.578;2022-09-09T06:43:50;99155.84;;;17.61;69.97
47883;BME280;37739;50.350;7.578;2022-09-09T06:46:16;99158.44;;;17.66;69.68
47883;BME280;37739;50.350;7.578;2022-09-09T06:48:45;99161.88;;;17.66;69.15
47883;BME280;37739;50.350;7.578;2022-09-09T06:51:18;99169.66;;;17.70;69.44
47883;BME280;37739;50.350;7.578;2022-09-09T06:53:47;99172.25;;;17.71;69.01
47883;BME280;37739;50.350;7.578;2022-09-09T06:58:48;99164.44;;;17.76;68.91
47883;BME280;37739;50.350;7.578;2022-09-09T07:01:18;99173.09;;;17.78;68.53
47883;BME280;37739;50.350;7.578;2022-09-09T07:03:53;99173.09;;;17.81;68.20
47883;BME280;37739;50.350;7.578;2022-09-09T07:06:24;99172.25;;;17.80;68.16
47883;BME280;37739;50.350;7.578;2022-09-09T07:08:51;99154.06;;;17.82;67.53
47883;BME280;37739;50.350;7.578;2022-09-09T07:11:19;99169.66;;;17.85;67.00
47883;BME280;37739;50.350;7.578;2022-09-09T07:13:48;99171.41;;;17.86;66.92
47883;BME280;37739;50.350;7.578;2022-09-09T07:16:16;99169.63;;;17.90;66.49
47883;BME280;37739;50.350;7.578;2022-09-09T07:18:44;99176.56;;;17.94;66.11
47883;BME280;37739;50.350;7.578;2022-09-09T07:21:12;99168.78;;;17.94;65.65
47883;BME280;37739;50.350;7.578;2022-09-09T07:23:42;99174.81;;;17.90;65.11
47883;BME280;37739;50.350;7.578;2022-09-09T07:26:17;99180.03;;;17.88;65.05
47883;BME280;37739;50.350;7.578;2022-09-09T07:28:45;99174.81;;;17.97;65.00
47883;BME280;37739;50.350;7.578;2022-09-09T07:31:16;99178.22;;;18.07;64.70
47883;BME280;37739;50.350;7.578;2022-09-09T07:33:45;99170.41;;;18.18;64.38
47883;BME280;37739;50.350;7.578;2022-09-09T07:38:48;99179.06;;;18.18;63.48
47883;BME280;37739;50.350;7.578;2022-09-09T07:41:21;99177.31;;;18.20;63.42
47883;BME280;37739;50.350;7.578;2022-09-09T07:43:50;99175.56;;;18.24;63.33
47883;BME280;37739;50.350;7.578;2022-09-09T07:46:18;99177.28;;;18.31;62.98
47883;BME280;37739;50.350;7.578;2022-09-09T07:48:48;99183.34;;;18.30;62.94
47883;BME280;37739;50.350;7.578;2022-09-09T07:51:23;99183.34;;;18.36;62.56
47883;BME280;37739;50.350;7.578;2022-09-09T07:53:54;99189.38;;;18.37;62.57
47883;BME280;37739;50.350;7.578;2022-09-09T07:56:20;99198.91;;;18.32;62.66
47883;BME280;37739;50.350;7.578;2022-09-09T07:58:49;99206.69;;;18.32;62.28
47883;BME280;37739;50.350;7.578;2022-09-09T08:01:17;99203.22;;;18.36;61.90
47883;BME280;37739;50.350;7.578;2022-09-09T08:03:52;99202.38;;;18.37;61.93
47883;BME280;37739;50.350;7.578;2022-09-09T08:06:20;99204.03;;;18.52;61.46
47883;BME280;37739;50.350;7.578;2022-09-09T08:08:49;99208.34;;;18.56;61.41
47883;BME280;37739;50.350;7.578;2022-09-09T08:11:15;99210.09;;;18.52;61.74
47883;BME280;37739;50.350;7.578;2022-09-09T08:13:42;99204.06;;;18.44;61.92
47883;BME280;37739;50.350;7.578;2022-09-09T08:16:19;99199.81;;;18.32;61.77
47883;BME280;37739;50.350;7.578;2022-09-09T08:18:51;99202.38;;;18.35;61.95
47883;BME280;37739;50.350;7.578;2022-09-09T08:21:19;99207.50;;;18.49;61.32
47883;BME280;37739;50.350;7.578;2022-09-09T08:23:46;99216.13;;;18.53;60.84
47883;BME280;37739;50.350;7.578;2022-09-09T08:26:17;99213.50;;;18.59;60.97
47883;BME280;37739;50.350;7.578;2022-09-09T08:28:48;99217.84;;;18.57;61.49
47883;BME280;37739;50.350;7.578;2022-09-09T08:31:17;99221.34;;;18.54;61.28
47883;BME280;37739;50.350;7.578;2022-09-09T08:33:45;99223.91;;;18.60;61.11
47883;BME280;37739;50.350;7.578;2022-09-09T08:36:16;99229.16;;;18.45;61.39
47883;BME280;37739;50.350;7.578;2022-09-09T08:38:42;99224.03;;;18.34;61.57
47883;BME280;37739;50.350;7.578;2022-09-09T08:41:15;99231.81;;;18.28;61.27
47883;BME280;37739;50.350;7.578;2022-09-09T08:43:50;99227.31;;;18.69;60.04
47883;BME280;37739;50.350;7.578;2022-09-09T08:46:57;99223.72;;;18.97;58.96
47883;BME280;37739;50.350;7.578;2022-09-09T08:52:31;99224.28;;;19.39;57.18
47883;BME280;37739;50.350;7.578;2022-09-09T08:57:49;99222.66;;;19.29;58.05
47883;BME280;37739;50.350;7.578;2022-09-09T09:00:17;99221.81;;;19.24;57.85
47883;BME280;37739;50.350;7.578;2022-09-09T09:05:32;99226.63;;;19.73;55.75
47883;BME280;37739;50.350;7.578;2022-09-09T09:12:59;99232.88;;;19.51;56.72
47883;BME280;37739;50.350;7.578;2022-09-09T09:15:32;99227.66;;;19.55;56.75
47883;BME280;37739;50.350;7.578;2022-09-09T09:18:02;99219.84;;;19.52;56.73
47883;BME280;37739;50.350;7.578;2022-09-09T09:23:23;99214.59;;;19.60;55.41
47883;BME280;37739;50.350;7.578;2022-09-09T09:25:50;99221.44;;;19.72;55.55
47883;BME280;37739;50.350;7.578;2022-09-09T09:28:28;99219.66;;;19.77;54.75
47883;BME280;37739;50.350;7.578;2022-09-09T09:31:04;99214.50;;;19.72;54.33
47883;BME280;37739;50.350;7.578;2022-09-09T09:33:52;99216.22;;;19.73;54.12
47883;BME280;37739;50.350;7.578;2022-09-09T09:36:24;99210.78;;;19.96;54.92
47883;BME280;37739;50.350;7.578;2022-09-09T09:38:55;99218.81;;;20.52;53.54
47883;BME280;37739;50.350;7.578;2022-09-09T09:41:38;99227.81;;;20.95;52.14
47883;BME280;37739;50.350;7.578;2022-09-09T09:44:06;99214.28;;;21.29;52.14
47883;BME280;37739;50.350;7.578;2022-09-09T09:46:45;99216.50;;;21.53;50.26
47883;BME280;37739;50.350;7.578;2022-09-09T09:49:10;99213.56;;;21.73;51.38
47883;BME280;37739;50.350;7.578;2022-09-09T09:51:36;99208.09;;;21.87;50.16
47883;BME280;37739;50.350;7.578;2022-09-09T09:56:40;99194.19;;;21.85;47.84
47883;BME280;37739;50.350;7.578;2022-09-09T09:59:19;99198.19;;;22.05;47.36
47883;BME280;37739;50.350;7.578;2022-09-09T10:01:48;99195.19;;;22.25;48.45
47883;BME280;37739;50.350;7.578;2022-09-09T10:04:21;99193.31;;;22.31;47.64
47883;BME280;37739;50.350;7.578;2022-09-09T10:06:53;99197.44;;;22.43;47.91
47883;BME280;37739;50.350;7.578;2022-09-09T10:09:24;99197.09;;;22.59;46.08
47883;BME280;37739;50.350;7.578;2022-09-09T10:12:01;99204.50;;;22.79;46.17
47883;BME280;37739;50.350;7.578;2022-09-09T10:19:36;99198.72;;;23.05;45.72
47883;BME280;37739;50.350;7.578;2022-09-09T10:30:14;99180.63;;;22.94;44.53
47883;BME280;37739;50.350;7.578;2022-09-09T10:38:57;99192.41;;;22.34;44.67
47883;BME280;37739;50.350;7.578;2022-09-09T10:41:47;99191.31;;;21.99;46.15
47883;BME280;37739;50.350;7.578;2022-09-09T10:48:07;99180.97;;;22.79;45.08
47883;BME280;37739;50.350;7.578;2022-09-09T10:55:39;99197.22;;;23.30;44.53
47883;BME280;37739;50.350;7.578;2022-09-09T10:58:11;99185.69;;;23.39;43.93
47883;BME280;37739;50.350;7.578;2022-09-09T11:00:42;99197.25;;;23.63;43.44
47883;BME280;37739;50.350;7.578;2022-09-09T11:03:25;99201.03;;;23.87;41.61
47883;BME280;37739;50.350;7.578;2022-09-09T11:06:04;99193.34;;;24.13;41.58
47883;BME280;37739;50.350;7.578;2022-09-09T11:08:32;99195.06;;;23.82;42.28
47883;BME280;37739;50.350;7.578;2022-09-09T11:16:57;99212.59;;;24.43;42.21
47883;BME280;37739;50.350;7.578;2022-09-09T11:19:30;99201.63;;;24.28;42.34
47883;BME280;37739;50.350;7.578;2022-09-09T11:22:24;99199.94;;;24.27;42.66
47883;BME280;37739;50.350;7.578;2022-09-09T11:25:01;99195.84;;;24.78;41.48
47883;BME280;37739;50.350;7.578;2022-09-09T11:30:54;99194.81;;;25.11;39.39
47883;BME280;37739;50.350;7.578;2022-09-09T11:35:59;99201.81;;;24.54;41.77
47883;BME280;37739;50.350;7.578;2022-09-09T11:38:47;99190.06;;;24.06;42.92
47883;BME280;37739;50.350;7.578;2022-09-09T11:41:16;99175.44;;;24.60;42.40
47883;BME280;37739;50.350;7.578;2022-09-09T11:43:47;99188.56;;;24.86;42.18
47883;BME280;37739;50.350;7.578;2022-09-09T11:46:18;99185.84;;;25.18;41.49
47883;BME280;37739;50.350;7.578;2022-09-09T11:48:59;99185.03;;;24.59;40.14
47883;BME280;37739;50.350;7.578;2022-09-09T11:51:27;99179.97;;;24.53;40.34
47883;BME280;37739;50.350;7.578;2022-09-09T11:54:24;99179.28;;;24.76;40.65
47883;BME280;37739;50.350;7.578;2022-09-09T11:56:48;99181.06;;;25.31;40.18
47883;BME280;37739;50.350;7.578;2022-09-09T11:59:27;99179.66;;;25.47;39.28
47883;BME280;37739;50.350;7.578;2022-09-09T12:02:03;99182.59;;;25.38;40.13
47883;BME280;37739;50.350;7.578;2022-09-09T12:04:39;99176.53;;;24.81;41.35
47883;BME280;37739;50.350;7.578;2022-09-09T12:09:56;99181.44;;;24.92;39.41
47883;BME280;37739;50.350;7.578;2022-09-09T12:12:29;99180.63;;;24.89;39.89
47883;BME280;37739;50.350;7.578;2022-09-09T12:15:18;99175.69;;;24.79;38.14
47883;BME280;37739;50.350;7.578;2022-09-09T12:17:48;99171.13;;;24.85;39.70
47883;BME280;37739;50.350;7.578;2022-09-09T12:20:21;99167.22;;;24.99;37.98
47883;BME280;37739;50.350;7.578;2022-09-09T12:25:22;99165.75;;;25.17;39.00
47883;BME280;37739;50.350;7.578;2022-09-09T12:30:19;99162.19;;;25.19;38.63
47883;BME280;37739;50.350;7.578;2022-09-09T12:32:46;99165.88;;;25.14;38.80
47883;BME280;37739;50.350;7.578;2022-09-09T12:37:50;99158.75;;;25.44;38.56
47883;BME280;37739;50.350;7.578;2022-09-09T12:40:31;99161.44;;;25.16;38.76
47883;BME280;37739;50.350;7.578;2022-09-09T12:43:14;99157.84;;;24.90;39.02
47883;BME280;37739;50.350;7.578;2022-09-09T12:45:41;99156.56;;;25.03;39.35
47883;BME280;37739;50.350;7.578;2022-09-09T12:48:08;99156.34;;;25.38;38.51
47883;BME280;37739;50.350;7.578;2022-09-09T12:50:45;99146.31;;;25.49;37.16
47883;BME280;37739;50.350;7.578;2022-09-09T12:55:52;99141.78;;;25.79;36.09
47883;BME280;37739;50.350;7.578;2022-09-09T12:58:20;99135.66;;;26.04;37.20
47883;BME280;37739;50.350;7.578;2022-09-09T13:00:52;99123.53;;;26.23;35.04
47883;BME280;37739;50.350;7.578;2022-09-09T13:03:24;99137.94;;;26.37;34.66
47883;BME280;37739;50.350;7.578;2022-09-09T13:05:58;99133.25;;;26.67;34.42
47883;BME280;37739;50.350;7.578;2022-09-09T13:08:25;99118.97;;;26.51;35.05
47883;BME280;37739;50.350;7.578;2022-09-09T13:11:00;99124.75;;;26.82;34.29
47883;BME280;37739;50.350;7.578;2022-09-09T13:13:38;99120.41;;;27.24;33.75
47883;BME280;37739;50.350;7.578;2022-09-09T13:16:06;99117.00;;;27.63;34.15
47883;BME280;37739;50.350;7.578;2022-09-09T13:18:39;99119.94;;;27.96;32.22
47883;BME280;37739;50.350;7.578;2022-09-09T13:21:05;99118.69;;;28.24;32.88
47883;BME280;37739;50.350;7.578;2022-09-09T13:23:33;99118.03;;;28.38;32.66
47883;BME280;37739;50.350;7.578;2022-09-09T13:26:24;99108.47;;;27.97;32.33
47883;BME280;37739;50.350;7.578;2022-09-09T13:28:51;99102.88;;;27.25;33.80
47883;BME280;37739;50.350;7.578;2022-09-09T13:31:46;99109.19;;;28.01;31.83
47883;BME280;37739;50.350;7.578;2022-09-09T13:36:38;99102.47;;;29.06;32.26
47883;BME280;37739;50.350;7.578;2022-09-09T13:39:15;99096.22;;;28.53;31.06
47883;BME280;37739;50.350;7.578;2022-09-09T13:41:43;99096.50;;;28.47;32.50
47883;BME280;37739;50.350;7.578;2022-09-09T13:44:30;99107.34;;;28.41;31.90
47883;BME280;37739;50.350;7.578;2022-09-09T13:49:42;99108.31;;;26.77;34.62
47883;BME280;37739;50.350;7.578;2022-09-09T13:52:18;99095.00;;;27.23;33.92
47883;BME280;37739;50.350;7.578;2022-09-09T13:54:50;99098.25;;;26.65;34.88
47883;BME280;37739;50.350;7.578;2022-09-09T13:59:45;99093.59;;;26.04;36.26
47883;BME280;37739;50.350;7.578;2022-09-09T14:02:11;99071.88;;;27.31;34.50
47883;BME280;37739;50.350;7.578;2022-09-09T14:04:38;99079.00;;;28.08;32.46
47883;BME280;37739;50.350;7.578;2022-09-09T14:07:05;99078.47;;;28.57;32.37
47883;BME280;37739;50.350;7.578;2022-09-09T14:09:32;99080.09;;;28.59;32.18
47883;BME280;37739;50.350;7.578;2022-09-09T14:11:58;99068.25;;;27.34;33.36
47883;BME280;37739;50.350;7.578;2022-09-09T14:14:25;99066.44;;;27.55;33.34
47883;BME280;37739;50.350;7.578;2022-09-09T14:16:51;99068.22;;;27.54;33.76
47883;BME280;37739;50.350;7.578;2022-09-09T14:19:18;99068.81;;;27.40;34.11
47883;BME280;37739;50.350;7.578;2022-09-09T14:21:46;99072.16;;;26.60;35.09
47883;BME280;37739;50.350;7.578;2022-09-09T14:24:11;99078.53;;;25.84;36.93
47883;BME280;37739;50.350;7.578;2022-09-09T14:26:37;99077.25;;;25.47;37.67
47883;BME280;37739;50.350;7.578;2022-09-09T14:29:05;99082.16;;;25.06;39.27
47883;BME280;37739;50.350;7.578;2022-09-09T14:31:32;99089.75;;;24.87;40.04
47883;BME280;37739;50.350;7.578;2022-09-09T14:34:00;99106.31;;;24.61;40.83
47883;BME280;37739;50.350;7.578;2022-09-09T14:36:28;99114.88;;;24.38;41.99
47883;BME280;37739;50.350;7.578;2022-09-09T14:38:55;99140.31;;;24.04;42.63
47883;BME280;37739;50.350;7.578;2022-09-09T14:41:26;99198.22;;;23.95;47.99
47883;BME280;37739;50.350;7.578;2022-09-09T14:43:54;99206.75;;;22.96;51.59
47883;BME280;37739;50.350;7.578;2022-09-09T14:46:23;99213.56;;;22.19;55.88
47883;BME280;37739;50.350;7.578;2022-09-09T14:48:51;99224.38;;;21.52;58.77
47883;BME280;37739;50.350;7.578;2022-09-09T14:51:22;99212.81;;;21.11;61.41
47883;BME280;37739;50.350;7.578;2022-09-09T14:53:51;99215.94;;;20.77;61.28
47883;BME280;37739;50.350;7.578;2022-09-09T14:56:20;99213.44;;;20.69;63.63
47883;BME280;37739;50.350;7.578;2022-09-09T14:58:50;99206.59;;;20.57;62.95
47883;BME280;37739;50.350;7.578;2022-09-09T15:01:19;99205.78;;;20.52;63.26
47883;BME280;37739;50.350;7.578;2022-09-09T15:03:53;99201.53;;;20.45;64.94
47883;BME280;37739;50.350;7.578;2022-09-09T15:06:20;99191.19;;;20.40;63.67
47883;BME280;37739;50.350;7.578;2022-09-09T15:08:46;99197.25;;;20.39;64.00
47883;BME280;37739;50.350;7.578;2022-09-09T15:11:14;99199.00;;;20.42;64.66
47883;BME280;37739;50.350;7.578;2022-09-09T15:13:41;99193.78;;;20.42;65.07
47883;BME280;37739;50.350;7.578;2022-09-09T15:16:17;99204.19;;;20.42;68.12
47883;BME280;37739;50.350;7.578;2022-09-09T15:18:43;99207.69;;;20.39;66.21
47883;BME280;37739;50.350;7.578;2022-09-09T15:21:13;99201.59;;;20.42;66.72
47883;BME280;37739;50.350;7.578;2022-09-09T15:23:39;99203.34;;;20.40;66.63
47883;BME280;37739;50.350;7.578;2022-09-09T15:26:05;99206.00;;;20.34;66.53